sensor_id;sensor_type;location;lat;lon;timestamp;P1;durP1;ratioP1;P2;durP2;ratioP2
40152;SDS011;26371;56.992;23.912;2022-09-27T00:00:13;6.63;;;3.28;;
40152;SDS011;26371;56.992;23.912;2022-09-27T00:02:49;6.65;;;3.35;;
40152;SDS011;26371;56.992;23.912;2022-09-27T00:05:22;5.97;;;3.10;;
40152;SDS011;26371;56.992;23.912;2022-09-27T00:08:01;5.90;;;3.00;;
40152;SDS011;26371;56.992;23.912;2022-09-27T00:10:37;6.70;;;3.55;;
40152;SDS011;26371;56.992;23.912;2022-09-27T00:16:14;7.13;;;3.45;;
40152;SDS011;26371;56.992;23.912;2022-09-27T00:18:48;8.07;;;3.53;;
40152;SDS011;26371;56.992;23.912;2022-09-27T00:21:34;10.07;;;4.05;;
40152;SDS011;26371;56.992;23.912;2022-09-27T00:27:01;6.50;;;3.47;;
40152;SDS011;26371;56.992;23.912;2022-09-27T00:29:30;7.88;;;3.53;;
40152;SDS011;26371;56.992;23.912;2022-09-27T00:32:06;5.82;;;3.30;;
40152;SDS011;26371;56.992;23.912;2022-09-27T00:34:35;6.47;;;3.10;;
40152;SDS011;26371;56.992;23.912;2022-09-27T00:37:06;6.32;;;3.40;;
40152;SDS011;26371;56.992;23.912;2022-09-27T00:39:45;6.05;;;3.65;;
40152;SDS011;26371;56.992;23.912;2022-09-27T00:42:14;5.28;;;2.92;;
40152;SDS011;26371;56.992;23.912;2022-09-27T00:44:57;6.72;;;3.30;;
40152;SDS011;26371;56.992;23.912;2022-09-27T00:47:34;6.95;;;3.00;;
40152;SDS011;26371;56.992;23.912;2022-09-27T00:50:10;6.03;;;3.13;;
40152;SDS011;26371;56.992;23.912;2022-09-27T00:52:53;5.65;;;3.28;;
40152;SDS011;26371;56.992;23.912;2022-09-27T00:58:29;7.10;;;3.30;;
40152;SDS011;26371;56.992;23.912;2022-09-27T01:01:02;5.75;;;3.50;;
40152;SDS011;26371;56.992;23.912;2022-09-27T01:03:38;7.53;;;3.60;;
40152;SDS011;26371;56.992;23.912;2022-09-27T01:06:19;5.53;;;3.00;;
40152;SDS011;26371;56.992;23.912;2022-09-27T01:17:27;8.00;;;3.50;;
40152;SDS011;26371;56.992;23.912;2022-09-27T01:23:30;6.70;;;3.17;;
40152;SDS011;26371;56.992;23.912;2022-09-27T01:26:24;6.97;;;3.47;;
40152;SDS011;26371;56.992;23.912;2022-09-27T01:29:09;7.00;;;3.03;;
40152;SDS011;26371;56.992;23.912;2022-09-27T01:34:46;7.20;;;3.58;;
40152;SDS011;26371;56.992;23.912;2022-09-27T01:37:31;6.25;;;3.28;;
40152;SDS011;26371;56.992;23.912;2022-09-27T01:40:07;7.28;;;3.75;;
40152;SDS011;26371;56.992;23.912;2022-09-27T01:46:34;6.47;;;3.47;;
40152;SDS011;26371;56.992;23.912;2022-09-27T01:49:31;7.95;;;4.20;;
40152;SDS011;26371;56.992;23.912;2022-09-27T01:52:14;6.95;;;3.88;;
40152;SDS011;26371;56.992;23.912;2022-09-27T01:54:48;6.82;;;3.63;;
40152;SDS011;26371;56.992;23.912;2022-09-27T01:57:39;6.68;;;3.75;;
40152;SDS011;26371;56.992;23.912;2022-09-27T02:00:19;6.32;;;4.00;;
40152;SDS011;26371;56.992;23.912;2022-09-27T02:02:49;7.50;;;3.97;;
40152;SDS011;26371;56.992;23.912;2022-09-27T02:05:30;8.30;;;3.72;;
40152;SDS011;26371;56.992;23.912;2022-09-27T02:08:24;8.63;;;3.92;;
40152;SDS011;26371;56.992;23.912;2022-09-27T02:14:14;7.70;;;3.75;;
40152;SDS011;26371;56.992;23.912;2022-09-27T02:16:50;6.13;;;3.60;;
40152;SDS011;26371;56.992;23.912;2022-09-27T02:19:30;5.63;;;3.67;;
40152;SDS011;26371;56.992;23.912;2022-09-27T02:22:12;6.00;;;3.30;;
40152;SDS011;26371;56.992;23.912;2022-09-27T02:31:33;8.57;;;3.67;;
40152;SDS011;26371;56.992;23.912;2022-09-27T02:36:33;7.88;;;3.90;;
40152;SDS011;26371;56.992;23.912;2022-09-27T02:39:05;7.97;;;4.00;;
40152;SDS011;26371;56.992;23.912;2022-09-27T02:41:38;8.52;;;4.13;;
40152;SDS011;26371;56.992;23.912;2022-09-27T02:44:08;6.55;;;3.30;;
40152;SDS011;26371;56.992;23.912;2022-09-27T02:46:47;11.60;;;4.63;;
40152;SDS011;26371;56.992;23.912;2022-09-27T02:49:41;5.82;;;3.88;;
40152;SDS011;26371;56.992;23.912;2022-09-27T02:56:00;8.63;;;3.83;;
40152;SDS011;26371;56.992;23.912;2022-09-27T03:02:40;7.80;;;3.97;;
40152;SDS011;26371;56.992;23.912;2022-09-27T03:05:31;10.10;;;4.18;;
40152;SDS011;26371;56.992;23.912;2022-09-27T03:08:05;6.68;;;3.80;;
40152;SDS011;26371;56.992;23.912;2022-09-27T03:13:36;8.23;;;4.25;;
40152;SDS011;26371;56.992;23.912;2022-09-27T03:16:26;11.07;;;4.10;;
40152;SDS011;26371;56.992;23.912;2022-09-27T03:19:31;8.80;;;3.80;;
40152;SDS011;26371;56.992;23.912;2022-09-27T03:25:17;8.27;;;4.55;;
40152;SDS011;26371;56.992;23.912;2022-09-27T03:27:48;8.88;;;4.18;;
40152;SDS011;26371;56.992;23.912;2022-09-27T03:30:18;6.95;;;3.95;;
40152;SDS011;26371;56.992;23.912;2022-09-27T03:32:52;6.40;;;3.80;;
40152;SDS011;26371;56.992;23.912;2022-09-27T03:35:40;7.25;;;3.95;;
40152;SDS011;26371;56.992;23.912;2022-09-27T03:38:12;7.43;;;3.92;;
40152;SDS011;26371;56.992;23.912;2022-09-27T03:43:40;7.22;;;4.05;;
40152;SDS011;26371;56.992;23.912;2022-09-27T03:46:09;6.72;;;3.88;;
40152;SDS011;26371;56.992;23.912;2022-09-27T03:48:39;7.22;;;4.32;;
40152;SDS011;26371;56.992;23.912;2022-09-27T03:54:13;7.45;;;4.00;;
40152;SDS011;26371;56.992;23.912;2022-09-27T03:56:42;6.65;;;3.50;;
40152;SDS011;26371;56.992;23.912;2022-09-27T03:59:13;11.02;;;4.63;;
40152;SDS011;26371;56.992;23.912;2022-09-27T04:02:12;8.60;;;5.43;;
40152;SDS011;26371;56.992;23.912;2022-09-27T04:08:13;7.28;;;4.05;;
40152;SDS011;26371;56.992;23.912;2022-09-27T04:19:51;9.05;;;4.53;;
40152;SDS011;26371;56.992;23.912;2022-09-27T04:28:17;8.30;;;4.35;;
40152;SDS011;26371;56.992;23.912;2022-09-27T04:30:48;7.78;;;4.25;;
40152;SDS011;26371;56.992;23.912;2022-09-27T04:33:34;11.57;;;4.57;;
40152;SDS011;26371;56.992;23.912;2022-09-27T04:36:18;7.47;;;4.25;;
40152;SDS011;26371;56.992;23.912;2022-09-27T04:39:18;8.10;;;4.07;;
40152;SDS011;26371;56.992;23.912;2022-09-27T04:44:45;9.10;;;4.47;;
40152;SDS011;26371;56.992;23.912;2022-09-27T04:47:16;8.63;;;4.60;;
40152;SDS011;26371;56.992;23.912;2022-09-27T04:49:47;7.75;;;4.03;;
40152;SDS011;26371;56.992;23.912;2022-09-27T04:55:46;6.60;;;4.27;;
40152;SDS011;26371;56.992;23.912;2022-09-27T04:58:15;8.40;;;4.60;;
40152;SDS011;26371;56.992;23.912;2022-09-27T05:03:35;8.15;;;4.10;;
40152;SDS011;26371;56.992;23.912;2022-09-27T05:06:12;7.07;;;4.72;;
40152;SDS011;26371;56.992;23.912;2022-09-27T05:08:42;7.75;;;4.05;;
40152;SDS011;26371;56.992;23.912;2022-09-27T05:17:14;10.30;;;4.70;;
40152;SDS011;26371;56.992;23.912;2022-09-27T05:20:10;8.48;;;5.03;;
40152;SDS011;26371;56.992;23.912;2022-09-27T05:22:51;11.27;;;5.38;;
40152;SDS011;26371;56.992;23.912;2022-09-27T05:25:20;8.52;;;5.78;;
40152;SDS011;26371;56.992;23.912;2022-09-27T05:30:19;9.32;;;5.57;;
40152;SDS011;26371;56.992;23.912;2022-09-27T05:32:52;9.73;;;5.72;;
40152;SDS011;26371;56.992;23.912;2022-09-27T05:35:26;11.07;;;5.55;;
40152;SDS011;26371;56.992;23.912;2022-09-27T05:37:56;9.68;;;5.70;;
40152;SDS011;26371;56.992;23.912;2022-09-27T05:40:30;11.70;;;5.50;;
40152;SDS011;26371;56.992;23.912;2022-09-27T05:43:09;10.63;;;5.82;;
40152;SDS011;26371;56.992;23.912;2022-09-27T05:45:38;10.90;;;5.63;;
40152;SDS011;26371;56.992;23.912;2022-09-27T05:48:10;11.23;;;5.97;;
40152;SDS011;26371;56.992;23.912;2022-09-27T05:51:03;13.82;;;6.28;;
40152;SDS011;26371;56.992;23.912;2022-09-27T05:53:36;11.82;;;6.50;;
40152;SDS011;26371;56.992;23.912;2022-09-27T05:56:10;11.68;;;6.70;;
40152;SDS011;26371;56.992;23.912;2022-09-27T05:58:57;11.70;;;5.75;;
40152;SDS011;26371;56.992;23.912;2022-09-27T06:01:41;10.07;;;6.38;;
40152;SDS011;26371;56.992;23.912;2022-09-27T06:04:36;14.90;;;7.38;;
40152;SDS011;26371;56.992;23.912;2022-09-27T06:07:27;10.82;;;7.15;;
40152;SDS011;26371;56.992;23.912;2022-09-27T06:09:59;11.38;;;7.20;;
40152;SDS011;26371;56.992;23.912;2022-09-27T06:12:28;14.45;;;7.13;;
40152;SDS011;26371;56.992;23.912;2022-09-27T06:14:59;11.60;;;7.07;;
40152;SDS011;26371;56.992;23.912;2022-09-27T06:17:34;10.77;;;6.63;;
40152;SDS011;26371;56.992;23.912;2022-09-27T06:22:47;11.18;;;6.93;;
40152;SDS011;26371;56.992;23.912;2022-09-27T06:25:18;16.02;;;8.15;;
40152;SDS011;26371;56.992;23.912;2022-09-27T06:28:09;12.40;;;7.93;;
40152;SDS011;26371;56.992;23.912;2022-09-27T06:30:42;14.55;;;8.55;;
40152;SDS011;26371;56.992;23.912;2022-09-27T06:33:26;14.10;;;9.23;;
40152;SDS011;26371;56.992;23.912;2022-09-27T06:35:59;17.38;;;9.30;;
40152;SDS011;26371;56.992;23.912;2022-09-27T06:38:32;18.25;;;10.55;;
40152;SDS011;26371;56.992;23.912;2022-09-27T06:44:28;20.38;;;9.93;;
40152;SDS011;26371;56.992;23.912;2022-09-27T06:47:20;19.85;;;12.18;;
40152;SDS011;26371;56.992;23.912;2022-09-27T06:53:37;17.05;;;10.95;;
40152;SDS011;26371;56.992;23.912;2022-09-27T06:59:04;17.95;;;11.60;;
40152;SDS011;26371;56.992;23.912;2022-09-27T07:02:09;19.98;;;12.77;;
40152;SDS011;26371;56.992;23.912;2022-09-27T07:04:56;21.17;;;12.68;;
40152;SDS011;26371;56.992;23.912;2022-09-27T07:10:54;15.85;;;11.85;;
40152;SDS011;26371;56.992;23.912;2022-09-27T07:13:29;17.02;;;11.30;;
40152;SDS011;26371;56.992;23.912;2022-09-27T07:15:58;17.27;;;11.48;;
40152;SDS011;26371;56.992;23.912;2022-09-27T07:18:28;19.40;;;13.50;;
40152;SDS011;26371;56.992;23.912;2022-09-27T07:20:58;17.67;;;12.48;;
40152;SDS011;26371;56.992;23.912;2022-09-27T07:23:30;20.33;;;12.23;;
40152;SDS011;26371;56.992;23.912;2022-09-27T07:26:01;19.85;;;12.05;;
40152;SDS011;26371;56.992;23.912;2022-09-27T07:28:32;18.60;;;11.75;;
40152;SDS011;26371;56.992;23.912;2022-09-27T07:33:43;17.13;;;11.38;;
40152;SDS011;26371;56.992;23.912;2022-09-27T07:36:12;16.20;;;10.52;;
40152;SDS011;26371;56.992;23.912;2022-09-27T07:38:45;15.70;;;11.02;;
40152;SDS011;26371;56.992;23.912;2022-09-27T07:44:49;15.45;;;9.70;;
40152;SDS011;26371;56.992;23.912;2022-09-27T07:47:21;15.00;;;9.65;;
40152;SDS011;26371;56.992;23.912;2022-09-27T07:50:07;13.85;;;8.30;;
40152;SDS011;26371;56.992;23.912;2022-09-27T07:52:53;13.15;;;8.43;;
40152;SDS011;26371;56.992;23.912;2022-09-27T07:55:34;11.85;;;7.90;;
40152;SDS011;26371;56.992;23.912;2022-09-27T07:58:12;11.35;;;7.80;;
40152;SDS011;26371;56.992;23.912;2022-09-27T08:00:43;11.57;;;7.60;;
40152;SDS011;26371;56.992;23.912;2022-09-27T08:03:16;9.88;;;6.78;;
40152;SDS011;26371;56.992;23.912;2022-09-27T08:12:38;9.68;;;6.90;;
40152;SDS011;26371;56.992;23.912;2022-09-27T08:17:38;10.43;;;6.55;;
40152;SDS011;26371;56.992;23.912;2022-09-27T08:23:05;10.07;;;6.43;;
40152;SDS011;26371;56.992;23.912;2022-09-27T08:25:50;7.75;;;5.30;;
40152;SDS011;26371;56.992;23.912;2022-09-27T08:28:40;9.07;;;5.88;;
40152;SDS011;26371;56.992;23.912;2022-09-27T08:37:53;9.25;;;6.13;;
40152;SDS011;26371;56.992;23.912;2022-09-27T08:40:23;9.82;;;5.45;;
40152;SDS011;26371;56.992;23.912;2022-09-27T08:43:07;9.07;;;5.32;;
40152;SDS011;26371;56.992;23.912;2022-09-27T08:45:46;8.20;;;5.10;;
40152;SDS011;26371;56.992;23.912;2022-09-27T08:48:30;9.20;;;5.50;;
40152;SDS011;26371;56.992;23.912;2022-09-27T08:51:02;12.52;;;5.70;;
40152;SDS011;26371;56.992;23.912;2022-09-27T08:53:36;9.10;;;5.93;;
40152;SDS011;26371;56.992;23.912;2022-09-27T08:56:08;7.80;;;5.38;;
40152;SDS011;26371;56.992;23.912;2022-09-27T08:58:46;8.48;;;5.57;;
40152;SDS011;26371;56.992;23.912;2022-09-27T09:05:59;10.25;;;5.57;;
40152;SDS011;26371;56.992;23.912;2022-09-27T09:08:38;9.63;;;5.68;;
40152;SDS011;26371;56.992;23.912;2022-09-27T09:11:24;9.98;;;5.95;;
40152;SDS011;26371;56.992;23.912;2022-09-27T09:18:58;11.05;;;5.63;;
40152;SDS011;26371;56.992;23.912;2022-09-27T09:21:59;8.27;;;5.35;;
40152;SDS011;26371;56.992;23.912;2022-09-27T09:24:36;9.80;;;5.75;;
40152;SDS011;26371;56.992;23.912;2022-09-27T09:27:19;8.93;;;5.65;;
40152;SDS011;26371;56.992;23.912;2022-09-27T09:30:00;9.50;;;5.85;;
40152;SDS011;26371;56.992;23.912;2022-09-27T09:37:04;9.43;;;5.40;;
40152;SDS011;26371;56.992;23.912;2022-09-27T09:39:47;8.77;;;5.05;;
40152;SDS011;26371;56.992;23.912;2022-09-27T09:42:21;18.55;;;13.25;;
40152;SDS011;26371;56.992;23.912;2022-09-27T09:44:54;28.95;;;22.25;;
40152;SDS011;26371;56.992;23.912;2022-09-27T09:47:32;8.35;;;4.95;;
40152;SDS011;26371;56.992;23.912;2022-09-27T09:50:13;9.40;;;5.35;;
40152;SDS011;26371;56.992;23.912;2022-09-27T09:52:50;11.82;;;9.82;;
40152;SDS011;26371;56.992;23.912;2022-09-27T09:58:35;7.53;;;5.20;;
40152;SDS011;26371;56.992;23.912;2022-09-27T10:03:50;8.65;;;5.95;;
40152;SDS011;26371;56.992;23.912;2022-09-27T10:08:57;7.57;;;4.32;;
40152;SDS011;26371;56.992;23.912;2022-09-27T10:14:35;7.40;;;5.30;;
40152;SDS011;26371;56.992;23.912;2022-09-27T10:17:05;11.07;;;4.88;;
40152;SDS011;26371;56.992;23.912;2022-09-27T10:19:40;9.38;;;5.13;;
40152;SDS011;26371;56.992;23.912;2022-09-27T10:22:13;6.95;;;5.07;;
40152;SDS011;26371;56.992;23.912;2022-09-27T10:24:56;8.23;;;5.22;;
40152;SDS011;26371;56.992;23.912;2022-09-27T10:27:52;8.88;;;5.28;;
40152;SDS011;26371;56.992;23.912;2022-09-27T10:30:30;7.10;;;5.30;;
40152;SDS011;26371;56.992;23.912;2022-09-27T10:35:52;7.90;;;5.13;;
40152;SDS011;26371;56.992;23.912;2022-09-27T10:38:29;9.90;;;5.25;;
40152;SDS011;26371;56.992;23.912;2022-09-27T10:41:24;8.82;;;5.57;;
40152;SDS011;26371;56.992;23.912;2022-09-27T10:47:22;7.40;;;5.30;;
40152;SDS011;26371;56.992;23.912;2022-09-27T10:50:19;9.07;;;5.55;;
40152;SDS011;26371;56.992;23.912;2022-09-27T10:53:35;7.55;;;5.50;;
40152;SDS011;26371;56.992;23.912;2022-09-27T10:56:21;7.55;;;5.53;;
40152;SDS011;26371;56.992;23.912;2022-09-27T10:58:51;9.38;;;5.20;;
40152;SDS011;26371;56.992;23.912;2022-09-27T11:01:23;9.13;;;5.10;;
40152;SDS011;26371;56.992;23.912;2022-09-27T11:04:33;9.02;;;5.45;;
40152;SDS011;26371;56.992;23.912;2022-09-27T11:07:12;7.97;;;5.18;;
40152;SDS011;26371;56.992;23.912;2022-09-27T11:16:47;11.05;;;6.15;;
40152;SDS011;26371;56.992;23.912;2022-09-27T11:19:40;9.25;;;6.07;;
40152;SDS011;26371;56.992;23.912;2022-09-27T11:22:32;12.50;;;6.80;;
40152;SDS011;26371;56.992;23.912;2022-09-27T11:25:25;7.97;;;5.40;;
40152;SDS011;26371;56.992;23.912;2022-09-27T11:28:09;8.07;;;5.95;;
40152;SDS011;26371;56.992;23.912;2022-09-27T11:30:47;9.95;;;5.70;;
40152;SDS011;26371;56.992;23.912;2022-09-27T11:37:02;9.13;;;5.95;;
40152;SDS011;26371;56.992;23.912;2022-09-27T11:39:48;9.60;;;5.50;;
40152;SDS011;26371;56.992;23.912;2022-09-27T11:49:13;9.07;;;5.50;;
40152;SDS011;26371;56.992;23.912;2022-09-27T11:55:38;9.25;;;5.50;;
40152;SDS011;26371;56.992;23.912;2022-09-27T11:58:17;10.32;;;6.32;;
40152;SDS011;26371;56.992;23.912;2022-09-27T12:03:51;8.85;;;6.40;;
40152;SDS011;26371;56.992;23.912;2022-09-27T12:06:46;8.98;;;6.20;;
40152;SDS011;26371;56.992;23.912;2022-09-27T12:09:27;10.57;;;7.43;;
40152;SDS011;26371;56.992;23.912;2022-09-27T12:12:05;20.60;;;15.90;;
40152;SDS011;26371;56.992;23.912;2022-09-27T12:18:37;12.77;;;9.90;;
40152;SDS011;26371;56.992;23.912;2022-09-27T12:24:47;9.50;;;6.50;;
40152;SDS011;26371;56.992;23.912;2022-09-27T12:27:33;15.52;;;11.10;;
40152;SDS011;26371;56.992;23.912;2022-09-27T12:30:11;17.23;;;14.93;;
40152;SDS011;26371;56.992;23.912;2022-09-27T12:39:11;11.68;;;7.82;;
40152;SDS011;26371;56.992;23.912;2022-09-27T12:47:44;21.85;;;11.48;;
40152;SDS011;26371;56.992;23.912;2022-09-27T12:50:26;22.45;;;14.48;;
40152;SDS011;26371;56.992;23.912;2022-09-27T12:53:02;25.13;;;15.15;;
40152;SDS011;26371;56.992;23.912;2022-09-27T12:55:40;14.80;;;10.27;;
40152;SDS011;26371;56.992;23.912;2022-09-27T12:58:35;16.88;;;11.00;;
40152;SDS011;26371;56.992;23.912;2022-09-27T13:01:43;18.10;;;10.88;;
40152;SDS011;26371;56.992;23.912;2022-09-27T13:04:46;33.88;;;17.08;;
40152;SDS011;26371;56.992;23.912;2022-09-27T13:07:35;45.92;;;21.55;;
40152;SDS011;26371;56.992;23.912;2022-09-27T13:10:21;14.80;;;9.63;;
40152;SDS011;26371;56.992;23.912;2022-09-27T13:13:22;14.43;;;9.80;;
40152;SDS011;26371;56.992;23.912;2022-09-27T13:15:54;68.05;;;34.53;;
40152;SDS011;26371;56.992;23.912;2022-09-27T13:18:49;70.35;;;34.63;;
40152;SDS011;26371;56.992;23.912;2022-09-27T13:27:47;53.45;;;25.20;;
40152;SDS011;26371;56.992;23.912;2022-09-27T13:42:39;25.10;;;15.00;;
40152;SDS011;26371;56.992;23.912;2022-09-27T13:45:16;26.30;;;14.32;;
40152;SDS011;26371;56.992;23.912;2022-09-27T13:47:50;10.43;;;7.93;;
40152;SDS011;26371;56.992;23.912;2022-09-27T13:50:32;14.25;;;9.35;;
40152;SDS011;26371;56.992;23.912;2022-09-27T13:59:23;12.55;;;7.60;;
40152;SDS011;26371;56.992;23.912;2022-09-27T14:02:35;13.43;;;9.10;;
40152;SDS011;26371;56.992;23.912;2022-09-27T14:05:07;11.18;;;8.48;;
40152;SDS011;26371;56.992;23.912;2022-09-27T14:07:41;12.10;;;8.30;;
40152;SDS011;26371;56.992;23.912;2022-09-27T14:10:15;12.50;;;8.10;;
40152;SDS011;26371;56.992;23.912;2022-09-27T14:19:17;10.15;;;7.30;;
40152;SDS011;26371;56.992;23.912;2022-09-27T14:21:47;9.15;;;6.70;;
40152;SDS011;26371;56.992;23.912;2022-09-27T14:24:45;9.32;;;6.78;;
40152;SDS011;26371;56.992;23.912;2022-09-27T14:27:22;10.20;;;7.30;;
40152;SDS011;26371;56.992;23.912;2022-09-27T14:37:51;9.55;;;6.70;;
40152;SDS011;26371;56.992;23.912;2022-09-27T14:40:22;10.30;;;6.60;;
40152;SDS011;26371;56.992;23.912;2022-09-27T14:46:24;8.20;;;6.45;;
40152;SDS011;26371;56.992;23.912;2022-09-27T14:48:56;9.57;;;7.00;;
40152;SDS011;26371;56.992;23.912;2022-09-27T14:54:32;9.35;;;7.05;;
40152;SDS011;26371;56.992;23.912;2022-09-27T14:57:04;8.35;;;6.60;;
40152;SDS011;26371;56.992;23.912;2022-09-27T14:59:37;12.13;;;7.20;;
40152;SDS011;26371;56.992;23.912;2022-09-27T15:05:14;12.75;;;7.85;;
40152;SDS011;26371;56.992;23.912;2022-09-27T15:07:45;11.85;;;7.60;;
40152;SDS011;26371;56.992;23.912;2022-09-27T15:10:16;14.35;;;7.68;;
40152;SDS011;26371;56.992;23.912;2022-09-27T15:17:14;10.43;;;6.68;;
40152;SDS011;26371;56.992;23.912;2022-09-27T15:19:59;13.80;;;7.97;;
40152;SDS011;26371;56.992;23.912;2022-09-27T15:22:34;12.25;;;7.28;;
40152;SDS011;26371;56.992;23.912;2022-09-27T15:25:06;10.77;;;6.75;;
40152;SDS011;26371;56.992;23.912;2022-09-27T15:32:07;8.13;;;6.47;;
40152;SDS011;26371;56.992;23.912;2022-09-27T15:34:45;8.95;;;6.82;;
40152;SDS011;26371;56.992;23.912;2022-09-27T15:37:25;9.65;;;6.80;;
40152;SDS011;26371;56.992;23.912;2022-09-27T15:39:59;9.90;;;6.97;;
40152;SDS011;26371;56.992;23.912;2022-09-27T15:42:56;9.52;;;7.10;;
40152;SDS011;26371;56.992;23.912;2022-09-27T15:45:28;11.07;;;7.68;;
40152;SDS011;26371;56.992;23.912;2022-09-27T15:48:06;12.30;;;8.40;;
40152;SDS011;26371;56.992;23.912;2022-09-27T15:50:42;13.27;;;9.18;;
40152;SDS011;26371;56.992;23.912;2022-09-27T15:56:12;11.90;;;8.10;;
40152;SDS011;26371;56.992;23.912;2022-09-27T15:58:43;12.50;;;8.43;;
40152;SDS011;26371;56.992;23.912;2022-09-27T16:01:16;15.75;;;9.40;;
40152;SDS011;26371;56.992;23.912;2022-09-27T16:03:48;15.73;;;8.75;;
40152;SDS011;26371;56.992;23.912;2022-09-27T16:06:26;13.45;;;9.73;;
40152;SDS011;26371;56.992;23.912;2022-09-27T16:08:56;13.52;;;9.95;;
40152;SDS011;26371;56.992;23.912;2022-09-27T16:13:57;18.15;;;11.60;;
40152;SDS011;26371;56.992;23.912;2022-09-27T16:16:26;17.27;;;11.45;;
40152;SDS011;26371;56.992;23.912;2022-09-27T16:18:58;19.17;;;11.63;;
40152;SDS011;26371;56.992;23.912;2022-09-27T16:24:29;17.02;;;11.45;;
40152;SDS011;26371;56.992;23.912;2022-09-27T16:26:59;17.38;;;11.25;;
40152;SDS011;26371;56.992;23.912;2022-09-27T16:29:28;14.10;;;10.18;;
40152;SDS011;26371;56.992;23.912;2022-09-27T16:31:58;18.00;;;10.73;;
40152;SDS011;26371;56.992;23.912;2022-09-27T16:34:28;13.45;;;10.23;;
40152;SDS011;26371;56.992;23.912;2022-09-27T16:36:57;16.35;;;9.15;;
40152;SDS011;26371;56.992;23.912;2022-09-27T16:39:30;16.35;;;10.02;;
40152;SDS011;26371;56.992;23.912;2022-09-27T16:42:03;14.35;;;9.30;;
40152;SDS011;26371;56.992;23.912;2022-09-27T16:44:36;13.73;;;9.27;;
40152;SDS011;26371;56.992;23.912;2022-09-27T16:51:50;11.27;;;8.18;;
40152;SDS011;26371;56.992;23.912;2022-09-27T16:54:28;15.40;;;8.73;;
40152;SDS011;26371;56.992;23.912;2022-09-27T16:57:00;11.02;;;7.82;;
40152;SDS011;26371;56.992;23.912;2022-09-27T16:59:29;13.02;;;8.65;;
40152;SDS011;26371;56.992;23.912;2022-09-27T17:08:05;11.77;;;7.82;;
40152;SDS011;26371;56.992;23.912;2022-09-27T17:16:11;12.57;;;7.57;;
40152;SDS011;26371;56.992;23.912;2022-09-27T17:18:41;10.98;;;7.90;;
40152;SDS011;26371;56.992;23.912;2022-09-27T17:25:36;12.40;;;9.25;;
40152;SDS011;26371;56.992;23.912;2022-09-27T17:28:09;14.38;;;9.05;;
40152;SDS011;26371;56.992;23.912;2022-09-27T17:30:43;12.88;;;8.70;;
40152;SDS011;26371;56.992;23.912;2022-09-27T17:33:19;13.80;;;7.68;;
40152;SDS011;26371;56.992;23.912;2022-09-27T17:40:32;11.45;;;7.70;;
40152;SDS011;26371;56.992;23.912;2022-09-27T17:43:02;11.40;;;7.20;;
40152;SDS011;26371;56.992;23.912;2022-09-27T17:45:32;12.82;;;7.50;;
40152;SDS011;26371;56.992;23.912;2022-09-27T17:48:02;11.27;;;6.85;;
40152;SDS011;26371;56.992;23.912;2022-09-27T17:53:47;11.25;;;6.85;;
40152;SDS011;26371;56.992;23.912;2022-09-27T17:56:16;11.65;;;6.35;;
40152;SDS011;26371;56.992;23.912;2022-09-27T17:58:47;11.75;;;6.22;;
40152;SDS011;26371;56.992;23.912;2022-09-27T18:01:17;10.18;;;6.43;;
40152;SDS011;26371;56.992;23.912;2022-09-27T18:03:46;8.85;;;6.18;;
40152;SDS011;26371;56.992;23.912;2022-09-27T18:06:19;10.23;;;6.00;;
40152;SDS011;26371;56.992;23.912;2022-09-27T18:08:49;9.65;;;6.20;;
40152;SDS011;26371;56.992;23.912;2022-09-27T18:11:26;13.02;;;7.03;;
40152;SDS011;26371;56.992;23.912;2022-09-27T18:13:57;11.15;;;6.22;;
40152;SDS011;26371;56.992;23.912;2022-09-27T18:16:28;10.85;;;6.20;;
40152;SDS011;26371;56.992;23.912;2022-09-27T18:19:01;12.25;;;6.43;;
40152;SDS011;26371;56.992;23.912;2022-09-27T18:21:31;12.70;;;6.28;;
40152;SDS011;26371;56.992;23.912;2022-09-27T18:24:01;10.00;;;5.78;;
40152;SDS011;26371;56.992;23.912;2022-09-27T18:26:30;8.95;;;5.55;;
40152;SDS011;26371;56.992;23.912;2022-09-27T18:29:04;8.05;;;5.07;;
40152;SDS011;26371;56.992;23.912;2022-09-27T18:31:34;11.23;;;5.57;;
40152;SDS011;26371;56.992;23.912;2022-09-27T18:34:06;7.85;;;5.00;;
40152;SDS011;26371;56.992;23.912;2022-09-27T18:36:35;8.35;;;4.72;;
40152;SDS011;26371;56.992;23.912;2022-09-27T18:39:09;9.93;;;5.10;;
40152;SDS011;26371;56.992;23.912;2022-09-27T18:41:39;12.25;;;5.03;;
40152;SDS011;26371;56.992;23.912;2022-09-27T18:44:10;8.52;;;4.60;;
40152;SDS011;26371;56.992;23.912;2022-09-27T18:46:44;8.80;;;4.65;;
40152;SDS011;26371;56.992;23.912;2022-09-27T18:51:44;8.60;;;4.43;;
40152;SDS011;26371;56.992;23.912;2022-09-27T18:54:16;8.00;;;4.78;;
40152;SDS011;26371;56.992;23.912;2022-09-27T18:56:48;8.38;;;4.38;;
40152;SDS011;26371;56.992;23.912;2022-09-27T18:59:21;8.65;;;4.35;;
40152;SDS011;26371;56.992;23.912;2022-09-27T19:01:50;8.93;;;4.18;;
40152;SDS011;26371;56.992;23.912;2022-09-27T19:04:22;8.00;;;4.72;;
40152;SDS011;26371;56.992;23.912;2022-09-27T19:06:53;7.10;;;4.25;;
40152;SDS011;26371;56.992;23.912;2022-09-27T19:09:22;9.00;;;4.10;;
40152;SDS011;26371;56.992;23.912;2022-09-27T19:11:52;9.27;;;3.90;;
40152;SDS011;26371;56.992;23.912;2022-09-27T19:14:22;7.90;;;4.65;;
40152;SDS011;26371;56.992;23.912;2022-09-27T19:16:52;7.57;;;4.05;;
40152;SDS011;26371;56.992;23.912;2022-09-27T19:19:22;7.20;;;4.03;;
40152;SDS011;26371;56.992;23.912;2022-09-27T19:21:51;6.03;;;3.55;;
40152;SDS011;26371;56.992;23.912;2022-09-27T19:24:20;6.82;;;4.00;;
40152;SDS011;26371;56.992;23.912;2022-09-27T19:26:49;6.50;;;3.75;;
40152;SDS011;26371;56.992;23.912;2022-09-27T19:29:19;6.68;;;3.90;;
40152;SDS011;26371;56.992;23.912;2022-09-27T19:31:50;7.35;;;4.22;;
40152;SDS011;26371;56.992;23.912;2022-09-27T19:34:19;7.53;;;3.85;;
40152;SDS011;26371;56.992;23.912;2022-09-27T19:39:17;10.60;;;4.43;;
40152;SDS011;26371;56.992;23.912;2022-09-27T19:41:50;9.18;;;4.47;;
40152;SDS011;26371;56.992;23.912;2022-09-27T19:44:19;9.15;;;4.10;;
40152;SDS011;26371;56.992;23.912;2022-09-27T19:46:47;7.45;;;4.32;;
40152;SDS011;26371;56.992;23.912;2022-09-27T19:49:18;8.10;;;4.38;;
40152;SDS011;26371;56.992;23.912;2022-09-27T19:51:47;6.93;;;4.18;;
40152;SDS011;26371;56.992;23.912;2022-09-27T19:54:17;8.10;;;4.10;;
40152;SDS011;26371;56.992;23.912;2022-09-27T19:56:48;7.18;;;3.60;;
40152;SDS011;26371;56.992;23.912;2022-09-27T19:59:17;7.10;;;3.95;;
40152;SDS011;26371;56.992;23.912;2022-09-27T20:01:49;6.63;;;3.17;;
40152;SDS011;26371;56.992;23.912;2022-09-27T20:04:18;5.95;;;3.35;;
40152;SDS011;26371;56.992;23.912;2022-09-27T20:06:53;6.63;;;3.40;;
40152;SDS011;26371;56.992;23.912;2022-09-27T20:09:25;6.20;;;3.72;;
40152;SDS011;26371;56.992;23.912;2022-09-27T20:11:54;6.65;;;3.78;;
40152;SDS011;26371;56.992;23.912;2022-09-27T20:14:23;8.25;;;3.70;;
40152;SDS011;26371;56.992;23.912;2022-09-27T20:16:53;7.13;;;3.50;;
40152;SDS011;26371;56.992;23.912;2022-09-27T20:19:22;5.80;;;3.05;;
40152;SDS011;26371;56.992;23.912;2022-09-27T20:21:51;7.95;;;3.75;;
40152;SDS011;26371;56.992;23.912;2022-09-27T20:24:20;7.53;;;3.40;;
40152;SDS011;26371;56.992;23.912;2022-09-27T20:26:49;8.00;;;3.38;;
40152;SDS011;26371;56.992;23.912;2022-09-27T20:29:18;5.95;;;3.10;;
40152;SDS011;26371;56.992;23.912;2022-09-27T20:31:47;6.80;;;3.13;;